createdAt,value
2019-03-31T00:01:36.118Z,9.60
2019-03-31T00:04:06.102Z,9.57
2019-03-31T00:06:35.953Z,9.03
2019-03-31T00:09:07.816Z,9.03
2019-03-31T00:11:37.667Z,8.63
2019-03-31T00:14:07.574Z,8.87
2019-03-31T00:16:37.530Z,9.47
2019-03-31T00:19:07.673Z,7.30
2019-03-31T00:21:37.486Z,8.50
2019-03-31T00:24:07.326Z,8.83
2019-03-31T00:26:37.150Z,9.77
2019-03-31T00:29:07.106Z,10.00
2019-03-31T00:31:37.018Z,9.80
2019-03-31T00:34:07.559Z,9.67
2019-03-31T00:36:37.384Z,9.17
2019-03-31T00:39:08.740Z,9.97
2019-03-31T00:41:38.557Z,9.90
2019-03-31T00:44:08.385Z,9.77
2019-03-31T00:46:38.248Z,8.97
2019-03-31T00:49:08.057Z,8.87
2019-03-31T00:51:54.738Z,10.07
2019-03-31T00:54:27.629Z,9.53
2019-03-31T00:56:56.136Z,9.83
2019-03-31T00:59:25.972Z,9.43
2019-03-31T01:01:58.884Z,10.40
2019-03-31T01:04:30.816Z,9.87
2019-03-31T01:07:00.882Z,11.03
2019-03-31T01:09:33.543Z,9.87
2019-03-31T01:12:04.740Z,10.80
2019-03-31T01:14:34.683Z,10.30
2019-03-31T01:17:06.783Z,9.93
2019-03-31T01:19:38.195Z,8.93
2019-03-31T01:22:08.124Z,9.60
2019-03-31T01:24:38.055Z,9.93
2019-03-31T01:27:09.651Z,10.47
2019-03-31T01:29:39.606Z,9.10
2019-03-31T01:32:09.444Z,9.57
2019-03-31T01:34:39.282Z,9.87
2019-03-31T01:37:10.335Z,9.60
2019-03-31T01:39:40.300Z,10.27
2019-03-31T01:42:10.346Z,10.73
2019-03-31T01:44:40.172Z,10.27
2019-03-31T01:47:10.325Z,9.60
2019-03-31T01:49:40.163Z,10.27
2019-03-31T01:52:10.041Z,10.50
2019-03-31T01:54:39.890Z,9.77
2019-03-31T01:57:11.647Z,10.20
2019-03-31T01:59:41.474Z,10.20
2019-03-31T02:02:15.805Z,10.47
2019-03-31T02:04:45.755Z,10.73
2019-03-31T02:07:15.699Z,11.43
2019-03-31T02:09:45.642Z,9.90
2019-03-31T02:12:15.673Z,10.40
2019-03-31T02:14:46.848Z,10.83
2019-03-31T02:17:17.219Z,9.80
2019-03-31T02:19:47.119Z,10.60
2019-03-31T02:22:17.101Z,10.60
2019-03-31T02:24:46.901Z,9.40
2019-03-31T02:27:16.759Z,10.10
2019-03-31T02:29:46.643Z,8.90
2019-03-31T02:32:24.018Z,9.23
2019-03-31T02:34:48.174Z,10.33
2019-03-31T02:37:18.026Z,9.93
2019-03-31T02:39:47.890Z,9.93
2019-03-31T02:42:17.753Z,9.27
2019-03-31T02:44:48.750Z,9.80
2019-03-31T02:47:18.653Z,9.53
2019-03-31T02:49:48.604Z,9.40
2019-03-31T02:52:18.488Z,9.93
2019-03-31T02:54:51.491Z,9.60
2019-03-31T02:57:23.494Z,9.10
2019-03-31T02:59:53.932Z,10.20
2019-03-31T03:02:40.698Z,10.33
2019-03-31T03:04:57.738Z,10.33
2019-03-31T03:07:29.493Z,9.83
2019-03-31T03:10:01.171Z,9.80
2019-03-31T03:12:34.987Z,9.47
2019-03-31T03:15:05.430Z,9.63
2019-03-31T03:17:35.256Z,10.27
2019-03-31T03:20:06.174Z,10.43
2019-03-31T03:22:36.044Z,9.77
2019-03-31T03:25:06.423Z,9.93
2019-03-31T03:27:36.367Z,10.33
2019-03-31T03:30:06.782Z,10.43
2019-03-31T03:32:37.802Z,10.30
2019-03-31T03:35:08.944Z,11.30
2019-03-31T03:37:38.779Z,10.90
2019-03-31T03:40:08.706Z,10.73
2019-03-31T03:42:38.558Z,10.77
2019-03-31T03:45:09.412Z,11.07
2019-03-31T03:47:39.247Z,12.20
2019-03-31T03:50:09.233Z,11.87
2019-03-31T03:52:39.145Z,12.73
2019-03-31T03:55:09.014Z,13.17
2019-03-31T03:57:38.846Z,12.57
2019-03-31T04:00:08.784Z,12.90
2019-03-31T04:02:38.749Z,12.83
2019-03-31T04:05:08.600Z,13.47
2019-03-31T04:07:38.540Z,12.60
2019-03-31T04:10:30.504Z,13.30
2019-03-31T04:13:00.388Z,13.43
2019-03-31T04:15:30.388Z,12.27
2019-03-31T04:18:00.322Z,12.17
2019-03-31T04:20:30.354Z,12.97
2019-03-31T04:23:00.144Z,12.20
2019-03-31T04:25:30.098Z,12.70
2019-03-31T04:28:00.113Z,12.53
2019-03-31T04:30:29.964Z,12.67
2019-03-31T04:32:59.812Z,10.00
2019-03-31T04:35:29.746Z,10.00
2019-03-31T04:37:59.623Z,9.43
2019-03-31T04:40:29.447Z,8.97
2019-03-31T04:42:59.274Z,9.17
2019-03-31T04:45:29.076Z,9.67
2019-03-31T04:47:58.915Z,9.53
2019-03-31T04:50:28.877Z,10.80
2019-03-31T04:52:58.687Z,9.80
2019-03-31T04:55:28.525Z,10.23
2019-03-31T04:58:01.103Z,10.93
2019-03-31T05:00:31.138Z,10.73
2019-03-31T05:03:00.979Z,10.50
2019-03-31T05:05:30.842Z,9.67
2019-03-31T05:08:00.679Z,9.57
2019-03-31T05:10:30.518Z,8.93
2019-03-31T05:13:00.386Z,9.93
2019-03-31T05:15:30.233Z,10.43
2019-03-31T05:18:00.082Z,9.87
2019-03-31T05:20:29.968Z,10.20
2019-03-31T05:22:59.782Z,10.20
2019-03-31T05:25:29.622Z,9.83
2019-03-31T05:28:00.038Z,9.57
2019-03-31T05:30:29.958Z,10.97
2019-03-31T05:32:59.776Z,9.87
2019-03-31T05:35:29.615Z,10.17
2019-03-31T05:37:59.541Z,10.43
2019-03-31T05:40:30.797Z,10.13
2019-03-31T05:43:00.840Z,10.57
2019-03-31T05:45:30.783Z,10.83
2019-03-31T05:48:00.640Z,10.53
2019-03-31T05:50:30.511Z,10.53
2019-03-31T05:53:00.358Z,11.13
2019-03-31T05:55:30.183Z,10.80
2019-03-31T05:58:01.514Z,11.53
2019-03-31T06:00:34.845Z,9.80
2019-03-31T06:03:04.964Z,10.50
2019-03-31T06:05:34.776Z,11.60
2019-03-31T06:08:05.105Z,10.97
2019-03-31T06:10:34.983Z,10.80
2019-03-31T06:13:04.829Z,11.03
2019-03-31T06:15:34.699Z,10.73
2019-03-31T06:18:04.816Z,11.53
2019-03-31T06:20:34.785Z,10.83
2019-03-31T06:23:06.053Z,11.47
2019-03-31T06:25:37.026Z,10.03
2019-03-31T06:28:07.024Z,11.50
2019-03-31T06:30:37.880Z,11.60
2019-03-31T06:33:07.864Z,11.70
2019-03-31T06:35:39.387Z,11.40
2019-03-31T06:38:11.041Z,11.20
2019-03-31T06:40:42.388Z,11.57
2019-03-31T06:43:12.266Z,10.43
2019-03-31T06:45:42.113Z,11.37
2019-03-31T06:48:11.997Z,10.93
2019-03-31T06:50:42.356Z,11.63
2019-03-31T06:53:12.236Z,11.50
2019-03-31T06:55:42.080Z,11.77
2019-03-31T06:58:11.920Z,11.83
2019-03-31T07:00:41.959Z,12.13
2019-03-31T07:03:11.824Z,12.17
2019-03-31T07:05:41.965Z,11.90
2019-03-31T07:08:11.902Z,12.10
2019-03-31T07:10:42.187Z,11.33
2019-03-31T07:13:12.431Z,11.90
2019-03-31T07:15:43.937Z,11.10
2019-03-31T07:18:16.058Z,11.27
2019-03-31T07:20:46.501Z,10.63
2019-03-31T07:23:16.470Z,10.87
2019-03-31T07:25:46.433Z,10.90
2019-03-31T07:28:16.390Z,11.30
2019-03-31T07:30:49.041Z,11.22
2019-03-31T07:33:19.112Z,11.55
2019-03-31T07:35:49.112Z,11.55
2019-03-31T07:38:21.612Z,12.07
2019-03-31T07:40:51.868Z,11.40
2019-03-31T07:43:21.796Z,12.25
2019-03-31T07:45:51.680Z,12.20
2019-03-31T07:48:21.544Z,12.55
2019-03-31T07:50:52.872Z,11.90
2019-03-31T07:53:23.398Z,11.93
2019-03-31T07:55:53.249Z,11.45
2019-03-31T07:58:23.189Z,12.20
2019-03-31T08:00:53.032Z,11.33
2019-03-31T08:03:23.045Z,12.30
2019-03-31T08:05:52.891Z,12.43
2019-03-31T08:08:22.754Z,12.37
2019-03-31T08:10:54.540Z,10.63
2019-03-31T08:13:24.383Z,12.55
2019-03-31T08:15:54.351Z,12.55
2019-03-31T08:18:24.442Z,12.65
2019-03-31T08:20:54.317Z,12.33
2019-03-31T08:23:35.610Z,12.65
2019-03-31T08:26:06.076Z,12.18
2019-03-31T08:28:35.944Z,13.18
2019-03-31T08:31:05.893Z,12.98
2019-03-31T08:33:35.807Z,12.82
2019-03-31T08:36:05.793Z,13.35
2019-03-31T08:38:35.662Z,12.47
2019-03-31T08:41:05.729Z,14.03
2019-03-31T08:43:35.641Z,12.60
2019-03-31T08:46:05.483Z,11.18
2019-03-31T08:48:35.408Z,12.78
2019-03-31T08:51:05.310Z,13.22
2019-03-31T08:53:35.258Z,12.70
2019-03-31T08:56:08.482Z,12.20
2019-03-31T08:58:38.511Z,13.45
2019-03-31T09:01:13.219Z,12.80
2019-03-31T09:03:43.144Z,12.23
2019-03-31T09:06:13.123Z,12.40
2019-03-31T09:08:43.019Z,11.80
2019-03-31T09:11:13.032Z,11.65
2019-03-31T09:13:42.971Z,13.62
2019-03-31T09:16:12.845Z,13.15
2019-03-31T09:18:42.739Z,12.70
2019-03-31T09:21:12.614Z,12.23
2019-03-31T09:23:42.468Z,12.03
2019-03-31T09:26:12.340Z,12.93
2019-03-31T09:28:42.622Z,13.43
2019-03-31T09:31:13.035Z,12.85
2019-03-31T09:33:43.216Z,12.35
2019-03-31T09:36:16.452Z,12.20
2019-03-31T09:38:44.722Z,12.47
2019-03-31T09:41:14.582Z,11.80
2019-03-31T09:43:44.467Z,11.80
2019-03-31T09:46:18.009Z,12.68
2019-03-31T09:48:47.992Z,12.15
2019-03-31T09:51:17.860Z,10.15
2019-03-31T09:53:47.808Z,12.00
2019-03-31T09:56:17.661Z,12.55
2019-03-31T09:58:47.501Z,11.08
2019-03-31T10:01:17.362Z,12.28
2019-03-31T10:03:47.245Z,11.30
2019-03-31T10:06:29.513Z,10.72
2019-03-31T10:08:48.742Z,11.08
2019-03-31T10:11:18.606Z,10.65
2019-03-31T10:13:48.455Z,11.18
2019-03-31T10:16:18.273Z,11.12
2019-03-31T10:18:48.181Z,10.05
2019-03-31T10:21:18.136Z,9.28
2019-03-31T10:23:48.082Z,10.38
2019-03-31T10:26:31.109Z,9.25
2019-03-31T10:28:49.683Z,10.43
2019-03-31T10:31:19.511Z,20.05
2019-03-31T10:33:49.388Z,14.43
2019-03-31T10:36:19.311Z,10.53
2019-03-31T10:38:49.153Z,7.92
2019-03-31T10:41:19.027Z,8.58
2019-03-31T10:43:48.975Z,7.95
2019-03-31T10:46:18.804Z,9.93
2019-03-31T10:48:48.832Z,7.45
2019-03-31T10:51:18.739Z,7.42
2019-03-31T10:53:48.735Z,8.93
2019-03-31T10:56:18.765Z,11.45
2019-03-31T10:58:48.918Z,8.18
2019-03-31T11:01:18.758Z,10.20
2019-03-31T11:03:50.292Z,12.53
2019-03-31T11:06:20.155Z,8.35
2019-03-31T11:08:56.438Z,8.25
2019-03-31T11:11:26.286Z,8.05
2019-03-31T11:13:56.133Z,8.85
2019-03-31T11:16:26.403Z,11.70
2019-03-31T11:18:56.247Z,8.95
2019-03-31T11:21:31.320Z,18.90
2019-03-31T11:24:01.339Z,9.60
2019-03-31T11:26:31.217Z,8.53
2019-03-31T11:29:01.235Z,8.90
2019-03-31T11:31:31.093Z,11.00
2019-03-31T11:34:01.368Z,8.70
2019-03-31T11:36:31.211Z,11.50
2019-03-31T11:39:01.093Z,9.80
2019-03-31T11:41:30.941Z,8.50
2019-03-31T11:44:01.038Z,7.37
2019-03-31T11:46:30.971Z,6.67
2019-03-31T11:49:00.823Z,7.15
2019-03-31T11:51:30.695Z,5.75
2019-03-31T11:54:00.579Z,4.00
2019-03-31T11:56:30.470Z,7.12
2019-03-31T11:59:00.348Z,9.80
2019-03-31T12:01:30.299Z,8.40
2019-03-31T12:04:00.276Z,3.67
2019-03-31T12:06:30.127Z,3.80
2019-03-31T12:09:01.556Z,2.77
2019-03-31T12:11:31.500Z,4.80
2019-03-31T12:14:01.362Z,4.05
2019-03-31T12:16:31.940Z,4.50
2019-03-31T12:19:02.875Z,4.53
2019-03-31T12:21:34.843Z,3.77
2019-03-31T12:24:05.031Z,5.45
2019-03-31T12:26:36.482Z,5.90
2019-03-31T12:29:07.422Z,4.25
2019-03-31T12:31:40.101Z,2.27
2019-03-31T12:34:11.427Z,2.72
2019-03-31T12:36:41.990Z,2.85
2019-03-31T12:39:12.931Z,2.40
2019-03-31T12:41:43.682Z,3.30
2019-03-31T12:44:13.656Z,3.83
2019-03-31T12:46:43.541Z,3.42
2019-03-31T12:49:13.473Z,2.87
2019-03-31T12:51:43.322Z,2.67
2019-03-31T12:54:13.200Z,4.03
2019-03-31T12:56:43.108Z,2.98
2019-03-31T12:59:12.960Z,3.17
2019-03-31T13:01:42.844Z,2.80
2019-03-31T13:04:12.775Z,2.37
2019-03-31T13:06:42.618Z,2.90
2019-03-31T13:09:12.489Z,3.20
2019-03-31T13:11:42.706Z,4.90
2019-03-31T13:14:12.537Z,3.40
2019-03-31T13:16:42.435Z,4.90
2019-03-31T13:19:13.877Z,2.40
2019-03-31T13:21:45.360Z,2.83
2019-03-31T13:24:15.248Z,3.67
2019-03-31T13:26:46.217Z,2.47
2019-03-31T13:29:16.398Z,6.90
2019-03-31T13:31:47.501Z,3.67
2019-03-31T13:34:17.480Z,4.80
2019-03-31T13:36:48.413Z,6.20
2019-03-31T13:39:18.308Z,3.90
2019-03-31T13:41:48.147Z,7.30
2019-03-31T13:44:17.984Z,4.33
2019-03-31T13:46:47.835Z,7.83
2019-03-31T13:49:17.699Z,4.73
2019-03-31T13:51:47.932Z,4.67
2019-03-31T13:54:17.762Z,5.30
2019-03-31T13:56:49.328Z,6.57
2019-03-31T13:59:19.964Z,3.80
2019-03-31T14:01:49.827Z,4.40
2019-03-31T14:04:19.747Z,4.13
2019-03-31T14:06:49.589Z,4.73
2019-03-31T14:09:19.444Z,4.90
2019-03-31T14:11:50.492Z,7.83
2019-03-31T14:14:22.254Z,7.20
2019-03-31T14:16:52.079Z,8.87
2019-03-31T14:19:23.736Z,7.73
2019-03-31T14:21:53.621Z,4.80
2019-03-31T14:24:26.779Z,4.17
2019-03-31T14:26:55.115Z,4.20
2019-03-31T14:29:24.999Z,3.90
2019-03-31T14:31:54.915Z,3.83
2019-03-31T14:34:24.920Z,6.03
2019-03-31T14:36:58.483Z,3.87
2019-03-31T14:39:28.291Z,4.07
2019-03-31T14:41:58.294Z,5.60
2019-03-31T14:44:28.259Z,3.73
2019-03-31T14:46:58.120Z,4.77
2019-03-31T14:49:28.008Z,5.10
2019-03-31T14:52:01.103Z,4.23
2019-03-31T14:54:29.716Z,6.57
2019-03-31T14:56:59.661Z,4.47
2019-03-31T14:59:29.522Z,4.73
2019-03-31T15:01:59.387Z,4.47
2019-03-31T15:04:29.404Z,4.70
2019-03-31T15:06:59.290Z,5.50
2019-03-31T15:09:29.657Z,4.70
2019-03-31T15:11:59.807Z,4.93
2019-03-31T15:14:29.721Z,6.37
2019-03-31T15:16:59.571Z,5.00
2019-03-31T15:19:29.438Z,5.63
2019-03-31T15:21:59.311Z,6.20
2019-03-31T15:24:29.262Z,6.07
2019-03-31T15:27:01.333Z,5.37
2019-03-31T15:29:31.147Z,5.50
2019-03-31T15:32:02.460Z,5.27
2019-03-31T15:34:32.312Z,6.50
2019-03-31T15:37:02.179Z,5.27
2019-03-31T15:39:32.059Z,5.20
2019-03-31T15:42:01.886Z,4.40
2019-03-31T15:44:31.851Z,4.73
2019-03-31T15:47:01.795Z,4.50
2019-03-31T15:49:31.622Z,5.03
2019-03-31T15:52:01.471Z,7.10
2019-03-31T15:54:31.286Z,4.60
2019-03-31T15:57:01.252Z,5.87
2019-03-31T15:59:31.089Z,11.67
2019-03-31T16:02:01.076Z,5.30
2019-03-31T16:04:33.204Z,8.13
2019-03-31T16:07:03.038Z,5.17
2019-03-31T16:09:32.368Z,10.73
2019-03-31T16:12:01.687Z,5.40
2019-03-31T16:14:30.976Z,5.47
2019-03-31T16:17:00.317Z,6.60
2019-03-31T16:19:29.650Z,9.10
2019-03-31T16:21:59.105Z,8.10
2019-03-31T16:24:36.984Z,9.17
2019-03-31T16:27:06.323Z,9.17
2019-03-31T16:29:35.825Z,8.07
2019-03-31T16:32:05.747Z,7.23
2019-03-31T16:34:35.481Z,8.10
2019-03-31T16:37:04.825Z,7.33
2019-03-31T16:39:38.139Z,8.97
2019-03-31T16:42:08.125Z,14.00
2019-03-31T16:44:37.874Z,9.70
2019-03-31T16:47:07.562Z,9.03
2019-03-31T16:49:37.245Z,13.73
2019-03-31T16:52:06.834Z,9.20
2019-03-31T16:54:37.908Z,10.93
2019-03-31T16:57:07.409Z,11.83
2019-03-31T16:59:38.671Z,10.20
2019-03-31T17:02:08.552Z,14.47
2019-03-31T17:04:38.306Z,17.77
2019-03-31T17:07:08.028Z,18.60
2019-03-31T17:09:50.686Z,17.83
2019-03-31T17:12:08.977Z,19.20
2019-03-31T17:14:38.676Z,22.90
2019-03-31T17:17:08.099Z,22.33
2019-03-31T17:19:39.011Z,22.70
2019-03-31T17:22:08.363Z,24.13
2019-03-31T17:24:38.236Z,25.40
2019-03-31T17:27:07.559Z,29.17
2019-03-31T17:29:38.798Z,26.70
2019-03-31T17:32:09.328Z,26.87
2019-03-31T17:34:38.745Z,28.07
2019-03-31T17:37:10.161Z,28.97
2019-03-31T17:39:39.794Z,30.37
2019-03-31T17:42:10.450Z,31.67
2019-03-31T17:44:39.990Z,32.90
2019-03-31T17:47:09.533Z,36.47
2019-03-31T17:49:39.212Z,30.53
2019-03-31T17:52:09.084Z,28.70
2019-03-31T17:54:38.999Z,28.73
2019-03-31T17:57:08.518Z,30.30
2019-03-31T17:59:38.244Z,31.80
2019-03-31T18:02:07.819Z,38.23
2019-03-31T18:04:38.781Z,30.17
2019-03-31T18:07:08.134Z,30.13
2019-03-31T18:09:38.081Z,31.63
2019-03-31T18:12:07.439Z,28.10
2019-03-31T18:14:36.894Z,35.43
2019-03-31T18:17:06.264Z,29.40
2019-03-31T18:19:36.187Z,31.03
2019-03-31T18:22:16.290Z,29.37
2019-03-31T18:24:37.198Z,29.13
2019-03-31T18:27:06.826Z,27.40
2019-03-31T18:29:36.539Z,28.27
2019-03-31T18:32:05.975Z,30.03
2019-03-31T18:34:35.584Z,27.87
2019-03-31T18:37:05.688Z,27.73
2019-03-31T18:39:35.045Z,26.67
2019-03-31T18:42:04.675Z,29.77
2019-03-31T18:44:35.170Z,27.80
2019-03-31T18:47:05.146Z,27.93
2019-03-31T18:49:34.647Z,27.30
2019-03-31T18:52:04.269Z,30.07
2019-03-31T18:54:53.176Z,27.67
2019-03-31T18:57:53.468Z,28.47
2019-03-31T19:00:40.502Z,32.83
2019-03-31T19:03:20.024Z,29.17
2019-03-31T19:06:03.678Z,30.07
2019-03-31T19:08:40.110Z,25.57
2019-03-31T19:11:32.725Z,24.80
2019-03-31T19:14:33.458Z,25.93
2019-03-31T19:17:20.493Z,25.40
2019-03-31T19:20:18.413Z,23.97
2019-03-31T19:23:05.878Z,26.57
2019-03-31T19:25:52.846Z,25.43
2019-03-31T19:28:44.354Z,24.47
2019-03-31T19:31:35.734Z,25.23
2019-03-31T19:34:29.495Z,23.40
2019-03-31T19:37:30.033Z,23.80
2019-03-31T19:40:20.736Z,26.47
2019-03-31T19:43:18.585Z,24.57
2019-03-31T19:46:08.077Z,23.53
2019-03-31T19:49:02.693Z,23.37
2019-03-31T19:51:54.496Z,22.97
2019-03-31T19:54:45.840Z,23.40
2019-03-31T19:57:38.014Z,22.33
2019-03-31T20:00:39.179Z,21.60
2019-03-31T20:03:31.074Z,22.33
2019-03-31T20:06:18.660Z,22.43
2019-03-31T20:09:08.912Z,23.63
2019-03-31T20:12:03.426Z,23.33
2019-03-31T20:14:45.441Z,22.17
2019-03-31T20:17:42.798Z,24.23
2019-03-31T20:20:43.513Z,23.77
2019-03-31T20:23:27.992Z,22.97
2019-03-31T20:26:19.055Z,23.90
2019-03-31T20:29:10.555Z,23.03
2019-03-31T20:31:52.449Z,22.80
2019-03-31T20:34:43.531Z,24.33
2019-03-31T20:37:23.820Z,24.63
2019-03-31T20:40:22.742Z,27.20
2019-03-31T20:43:11.024Z,24.37
2019-03-31T20:45:40.629Z,24.37
2019-03-31T20:48:10.840Z,24.17
2019-03-31T20:50:40.498Z,24.23
2019-03-31T20:53:10.304Z,26.20
2019-03-31T20:55:39.882Z,24.00
2019-03-31T20:58:09.344Z,24.73
2019-03-31T21:00:38.992Z,24.30
2019-03-31T21:03:08.906Z,27.00
2019-03-31T21:08:15.732Z,28.37
2019-03-31T21:10:45.033Z,26.97
2019-03-31T21:13:14.843Z,26.80
2019-03-31T21:15:44.347Z,24.13
2019-03-31T21:18:13.898Z,26.40
2019-03-31T21:20:43.985Z,28.37
2019-03-31T21:23:13.526Z,24.40
2019-03-31T21:25:46.131Z,25.83
2019-03-31T21:28:15.970Z,26.13
2019-03-31T21:30:45.757Z,27.10
2019-03-31T21:33:15.807Z,23.83
2019-03-31T21:35:48.548Z,26.00
2019-03-31T21:38:18.428Z,27.50
2019-03-31T21:40:47.733Z,26.90
2019-03-31T21:43:17.056Z,24.50
2019-03-31T21:45:47.461Z,25.97
2019-03-31T21:48:16.729Z,24.70
2019-03-31T21:50:46.019Z,23.47
2019-03-31T21:53:16.445Z,24.67
2019-03-31T21:55:47.090Z,25.73
2019-03-31T21:58:17.815Z,26.17
2019-03-31T22:00:59.527Z,26.90
2019-03-31T22:03:29.938Z,25.87
2019-03-31T22:05:59.585Z,25.07
2019-03-31T22:08:28.974Z,26.33
2019-03-31T22:10:58.898Z,27.67
2019-03-31T22:13:29.270Z,25.13
2019-03-31T22:16:00.267Z,25.87
2019-03-31T22:18:32.922Z,26.63
2019-03-31T22:21:03.761Z,26.53
2019-03-31T22:23:34.712Z,27.13
2019-03-31T22:26:04.064Z,26.80
2019-03-31T22:28:33.545Z,26.77
2019-03-31T22:31:04.663Z,27.27
2019-03-31T22:33:34.493Z,27.93
2019-03-31T22:36:22.349Z,26.87
2019-03-31T22:38:53.111Z,28.57
2019-03-31T22:41:22.784Z,26.93
2019-03-31T22:43:52.080Z,26.90
2019-03-31T22:46:21.398Z,26.90
2019-03-31T22:48:50.683Z,27.13
2019-03-31T22:51:20.031Z,28.53
2019-03-31T22:53:50.048Z,27.93
2019-03-31T22:56:19.338Z,27.40
2019-03-31T22:58:48.622Z,27.50
2019-03-31T23:01:17.973Z,27.60
2019-03-31T23:03:47.264Z,27.30
2019-03-31T23:06:16.548Z,26.27
2019-03-31T23:08:45.967Z,27.40
2019-03-31T23:11:15.268Z,27.20
2019-03-31T23:13:45.039Z,27.13
2019-03-31T23:16:15.555Z,26.10
2019-03-31T23:18:44.816Z,26.70
2019-03-31T23:21:14.148Z,26.07
2019-03-31T23:23:43.406Z,28.70
2019-03-31T23:26:12.744Z,27.80
2019-03-31T23:28:47.230Z,29.20
2019-03-31T23:31:18.763Z,27.83
2019-03-31T23:33:51.371Z,30.57
2019-03-31T23:36:21.967Z,28.93
2019-03-31T23:38:52.713Z,29.70
2019-03-31T23:41:23.281Z,29.83
2019-03-31T23:43:53.698Z,27.90
2019-03-31T23:46:24.964Z,28.60
2019-03-31T23:48:55.410Z,29.07
2019-03-31T23:51:25.015Z,30.53
2019-03-31T23:53:55.876Z,30.17
2019-03-31T23:56:27.367Z,30.47
2019-03-31T23:58:56.956Z,30.63
